createdAt,value
2023-04-06T00:01:03.075Z,19.58
2023-04-06T00:03:29.816Z,21.90
2023-04-06T00:05:56.687Z,17.83
2023-04-06T00:08:24.490Z,20.67
2023-04-06T00:10:51.154Z,21.10
2023-04-06T00:13:17.890Z,17.90
2023-04-06T00:15:44.642Z,18.85
2023-04-06T00:18:11.479Z,21.02
2023-04-06T00:20:38.197Z,18.58
2023-04-06T00:23:05.553Z,19.00
2023-04-06T00:25:32.590Z,18.98
2023-04-06T00:27:59.656Z,18.02
2023-04-06T00:30:26.681Z,19.77
2023-04-06T00:32:53.751Z,17.20
2023-04-06T00:35:20.878Z,18.20
2023-04-06T00:37:49.141Z,17.92
2023-04-06T00:40:16.615Z,16.67
2023-04-06T00:42:43.470Z,15.38
2023-04-06T00:45:11.003Z,19.40
2023-04-06T00:47:38.094Z,17.95
2023-04-06T00:50:05.354Z,17.95
2023-04-06T00:52:32.377Z,20.58
2023-04-06T00:54:59.399Z,18.58
2023-04-06T00:57:26.456Z,17.70
2023-04-06T00:59:53.917Z,20.88
2023-04-06T01:02:21.297Z,17.63
2023-04-06T01:04:48.439Z,18.63
2023-04-06T01:07:15.519Z,18.08
2023-04-06T01:09:42.961Z,18.92
2023-04-06T01:12:10.126Z,20.73
2023-04-06T01:14:37.414Z,18.58
2023-04-06T01:17:04.530Z,17.67
2023-04-06T01:19:31.872Z,17.58
2023-04-06T01:21:59.011Z,16.67
2023-04-06T01:24:26.291Z,17.27
2023-04-06T01:26:53.315Z,16.35
2023-04-06T01:29:20.661Z,14.32
2023-04-06T01:31:47.848Z,16.55
2023-04-06T01:34:15.013Z,18.80
2023-04-06T01:36:42.228Z,16.02
2023-04-06T01:39:09.440Z,18.05
2023-04-06T01:41:36.715Z,15.45
2023-04-06T01:44:04.046Z,15.40
2023-04-06T01:46:31.281Z,19.27
2023-04-06T01:48:58.321Z,20.13
2023-04-06T01:51:26.704Z,18.73
2023-04-06T01:53:53.832Z,15.10
2023-04-06T01:56:21.109Z,14.77
2023-04-06T01:58:48.224Z,18.95
2023-04-06T02:01:15.584Z,17.85
2023-04-06T02:03:42.831Z,16.27
2023-04-06T02:06:09.913Z,16.10
2023-04-06T02:08:37.085Z,15.60
2023-04-06T02:11:04.167Z,14.25
2023-04-06T02:13:31.299Z,17.42
2023-04-06T02:15:58.353Z,13.43
2023-04-06T02:18:25.412Z,13.65
2023-04-06T02:20:52.531Z,17.30
2023-04-06T02:23:19.645Z,17.35
2023-04-06T02:25:46.941Z,14.95
2023-04-06T02:28:13.978Z,16.42
2023-04-06T02:30:41.082Z,20.02
2023-04-06T02:33:08.156Z,19.15
2023-04-06T02:35:35.508Z,15.95
2023-04-06T02:38:02.606Z,18.40
2023-04-06T02:40:29.749Z,17.50
2023-04-06T02:42:56.803Z,15.50
2023-04-06T02:45:23.948Z,19.20
2023-04-06T02:47:51.410Z,16.75
2023-04-06T02:50:18.528Z,15.00
2023-04-06T02:52:45.589Z,18.90
2023-04-06T02:55:12.672Z,16.80
2023-04-06T02:57:39.813Z,15.10
2023-04-06T03:00:07.674Z,17.13
2023-04-06T03:02:34.807Z,26.85
2023-04-06T03:05:02.352Z,20.13
2023-04-06T03:07:29.407Z,17.83
2023-04-06T03:09:56.526Z,17.75
2023-04-06T03:12:23.601Z,14.32
2023-04-06T03:14:50.676Z,16.60
2023-04-06T03:17:17.690Z,17.17
2023-04-06T03:19:44.759Z,15.07
2023-04-06T03:22:11.813Z,16.65
2023-04-06T03:24:38.854Z,16.92
2023-04-06T03:27:07.167Z,16.77
2023-04-06T03:29:34.232Z,17.73
2023-04-06T03:32:01.378Z,15.35
2023-04-06T03:34:28.425Z,20.90
2023-04-06T03:37:07.143Z,15.70
2023-04-06T03:39:37.185Z,18.52
2023-04-06T03:42:04.310Z,16.58
2023-04-06T03:44:31.320Z,19.70
2023-04-06T03:46:58.361Z,16.02
2023-04-06T03:49:25.445Z,16.92
2023-04-06T03:51:52.578Z,17.80
2023-04-06T03:54:19.615Z,17.85
2023-04-06T03:56:46.643Z,19.30
2023-04-06T03:59:13.679Z,20.63
2023-04-06T04:01:41.122Z,18.73
2023-04-06T04:04:08.214Z,17.20
2023-04-06T04:06:37.338Z,18.13
2023-04-06T04:09:04.470Z,17.27
2023-04-06T04:11:31.558Z,18.13
2023-04-06T04:13:58.589Z,17.98
2023-04-06T04:16:25.668Z,18.15
2023-04-06T04:18:52.842Z,18.20
2023-04-06T04:21:19.900Z,17.52
2023-04-06T04:23:46.928Z,19.00
2023-04-06T04:26:13.970Z,18.60
2023-04-06T04:28:41.105Z,19.38
2023-04-06T04:31:08.172Z,17.48
2023-04-06T04:33:35.705Z,17.50
2023-04-06T04:36:02.808Z,18.95
2023-04-06T04:38:30.337Z,17.13
2023-04-06T04:40:57.557Z,17.40
2023-04-06T04:43:24.677Z,17.35
2023-04-06T04:45:51.796Z,17.30
2023-04-06T04:48:18.825Z,19.20
2023-04-06T04:50:46.074Z,25.70
2023-04-06T04:53:13.119Z,19.83
2023-04-06T04:55:40.158Z,17.92
2023-04-06T04:58:07.281Z,21.13
2023-04-06T05:00:34.312Z,18.73
2023-04-06T05:03:01.453Z,20.77
2023-04-06T05:05:28.557Z,19.13
2023-04-06T05:07:55.592Z,18.70
2023-04-06T05:10:22.677Z,17.05
2023-04-06T05:12:49.835Z,22.38
2023-04-06T05:15:16.921Z,18.92
2023-04-06T05:17:44.157Z,17.48
2023-04-06T05:20:11.560Z,18.38
2023-04-06T05:22:38.644Z,19.55
2023-04-06T05:25:05.871Z,17.17
2023-04-06T05:27:33.018Z,16.30
2023-04-06T05:30:00.120Z,17.80
2023-04-06T05:32:27.311Z,16.17
2023-04-06T05:34:54.488Z,17.13
2023-04-06T05:37:21.873Z,21.10
2023-04-06T05:39:48.886Z,18.90
2023-04-06T05:42:16.682Z,20.55
2023-04-06T05:44:43.697Z,18.75
2023-04-06T05:47:10.915Z,20.02
2023-04-06T05:49:37.957Z,21.60
2023-04-06T05:52:05.270Z,18.55
2023-04-06T05:54:32.376Z,18.67
2023-04-06T05:56:59.394Z,22.08
2023-04-06T05:59:26.480Z,20.52
2023-04-06T06:01:53.650Z,18.98
2023-04-06T06:04:20.831Z,19.90
2023-04-06T06:06:47.880Z,19.25
2023-04-06T06:09:15.485Z,22.63
2023-04-06T06:11:43.015Z,21.42
2023-04-06T06:14:09.668Z,17.27
2023-04-06T06:16:36.641Z,18.85
2023-04-06T06:19:03.304Z,18.17
2023-04-06T06:21:29.997Z,16.83
2023-04-06T06:23:57.048Z,25.90
2023-04-06T06:26:24.072Z,18.98
2023-04-06T06:28:51.111Z,21.30
2023-04-06T06:31:19.408Z,21.42
2023-04-06T06:33:46.494Z,20.38
2023-04-06T06:36:13.503Z,20.50
2023-04-06T06:38:40.548Z,17.60
2023-04-06T06:41:07.630Z,16.40
2023-04-06T06:43:34.701Z,15.30
2023-04-06T06:46:01.847Z,18.27
2023-04-06T06:48:29.064Z,20.40
2023-04-06T06:50:56.242Z,17.90
2023-04-06T06:53:23.395Z,17.38
2023-04-06T06:55:50.566Z,16.65
2023-04-06T06:58:20.408Z,18.90
2023-04-06T07:00:47.799Z,20.25
2023-04-06T07:03:15.159Z,17.58
2023-04-06T07:05:53.676Z,18.38
2023-04-06T07:08:24.553Z,16.92
2023-04-06T07:10:53.436Z,20.85
2023-04-06T07:13:24.830Z,19.48
2023-04-06T07:15:52.333Z,19.27
2023-04-06T07:18:20.667Z,19.33
2023-04-06T07:20:47.756Z,20.92
2023-04-06T07:23:14.877Z,16.63
2023-04-06T07:25:42.066Z,21.05
2023-04-06T07:28:09.122Z,19.35
2023-04-06T07:30:37.076Z,20.05
2023-04-06T07:33:04.351Z,22.00
2023-04-06T07:35:31.581Z,19.60
2023-04-06T07:37:58.913Z,20.33
2023-04-06T07:40:27.102Z,21.23
2023-04-06T07:42:56.202Z,17.95
2023-04-06T07:45:24.505Z,23.48
2023-04-06T07:47:51.689Z,25.08
2023-04-06T07:50:18.772Z,19.00
2023-04-06T07:52:45.883Z,21.20
2023-04-06T07:55:13.001Z,21.83
2023-04-06T07:57:40.029Z,21.92
2023-04-06T08:00:07.563Z,18.50
2023-04-06T08:02:34.826Z,16.30
2023-04-06T08:05:02.218Z,19.38
2023-04-06T08:07:29.277Z,20.88
2023-04-06T08:09:56.356Z,19.55
2023-04-06T08:12:23.442Z,18.77
2023-04-06T08:14:50.637Z,15.35
2023-04-06T08:17:17.785Z,18.05
2023-04-06T08:19:45.349Z,20.30
2023-04-06T08:22:12.942Z,16.80
2023-04-06T08:24:39.743Z,20.08
2023-04-06T08:27:06.480Z,19.38
2023-04-06T08:29:33.114Z,18.40
2023-04-06T08:31:59.982Z,20.50
2023-04-06T08:34:26.697Z,21.20
2023-04-06T08:36:53.333Z,19.83
2023-04-06T08:39:26.166Z,25.27
2023-04-06T08:41:53.861Z,17.87
2023-04-06T08:44:20.839Z,19.77
2023-04-06T08:46:47.621Z,19.25
2023-04-06T08:49:16.997Z,17.35
2023-04-06T08:51:43.865Z,19.70
2023-04-06T08:54:10.955Z,19.13
2023-04-06T08:56:41.052Z,18.55
2023-04-06T08:59:08.850Z,18.23
2023-04-06T09:01:42.015Z,18.25
2023-04-06T09:04:12.392Z,18.27
2023-04-06T09:06:41.675Z,16.85
2023-04-06T09:09:09.061Z,18.90
2023-04-06T09:11:49.826Z,17.77
2023-04-06T09:14:17.574Z,18.20
2023-04-06T09:16:46.208Z,17.90
2023-04-06T09:19:13.584Z,17.40
2023-04-06T09:21:41.073Z,18.73
2023-04-06T09:24:08.990Z,18.17
2023-04-06T09:26:48.825Z,15.65
2023-04-06T09:29:27.508Z,17.23
2023-04-06T09:32:06.375Z,17.25
2023-04-06T09:34:33.803Z,19.00
2023-04-06T09:37:00.712Z,17.50
2023-04-06T09:39:27.482Z,17.25
2023-04-06T09:41:55.257Z,19.83
2023-04-06T09:44:22.195Z,18.98
2023-04-06T09:46:58.740Z,16.38
2023-04-06T09:49:28.532Z,16.38
2023-04-06T09:51:59.367Z,18.95
2023-04-06T09:54:30.475Z,17.58
2023-04-06T09:57:25.731Z,16.50
2023-04-06T10:00:10.290Z,18.05
2023-04-06T10:03:09.634Z,17.95
2023-04-06T10:05:59.665Z,18.33
2023-04-06T10:08:31.814Z,17.85
2023-04-06T10:11:00.172Z,18.38
2023-04-06T10:13:26.921Z,17.83
2023-04-06T10:15:53.985Z,16.88
2023-04-06T10:18:21.635Z,17.33
2023-04-06T10:20:55.879Z,17.80
2023-04-06T10:23:28.921Z,16.98
2023-04-06T10:25:56.805Z,18.70
2023-04-06T10:28:24.190Z,20.63
2023-04-06T10:30:57.277Z,20.33
2023-04-06T10:33:23.971Z,19.37
2023-04-06T10:35:50.796Z,19.33
2023-04-06T10:38:21.943Z,19.33
2023-04-06T10:40:49.331Z,21.13
2023-04-06T10:43:23.799Z,20.15
2023-04-06T10:45:57.705Z,18.10
2023-04-06T10:50:53.140Z,17.75
2023-04-06T10:53:24.421Z,16.77
2023-04-06T10:55:52.092Z,17.55
2023-04-06T10:58:19.554Z,19.02
2023-04-06T11:00:50.271Z,19.10
2023-04-06T11:03:18.199Z,16.13
2023-04-06T11:05:48.614Z,16.60
2023-04-06T11:08:47.824Z,16.25
2023-04-06T11:11:16.945Z,17.42
2023-04-06T11:13:47.902Z,19.00
2023-04-06T11:16:17.194Z,16.17
2023-04-06T11:18:50.151Z,19.45
2023-04-06T11:21:17.556Z,15.63
2023-04-06T11:23:44.641Z,15.30
2023-04-06T11:26:12.777Z,15.65
2023-04-06T11:28:40.522Z,17.40
2023-04-06T11:31:08.124Z,16.02
2023-04-06T11:33:39.380Z,16.15
2023-04-06T11:36:07.306Z,16.48
2023-04-06T11:38:35.184Z,17.02
2023-04-06T11:41:03.489Z,18.27
2023-04-06T11:43:31.937Z,20.05
2023-04-06T11:46:03.403Z,17.98
2023-04-06T11:48:31.086Z,15.57
2023-04-06T11:50:59.723Z,17.02
2023-04-06T11:53:26.887Z,16.67
2023-04-06T11:55:53.593Z,17.60
2023-04-06T11:58:20.323Z,15.50
2023-04-06T12:00:47.879Z,14.35
2023-04-06T12:03:15.481Z,14.10
2023-04-06T12:05:42.585Z,13.27
2023-04-06T12:08:09.660Z,15.10
2023-04-06T12:10:36.533Z,13.73
2023-04-06T12:13:03.371Z,13.32
2023-04-06T12:15:30.199Z,16.65
2023-04-06T12:17:56.911Z,12.15
2023-04-06T12:20:26.954Z,14.05
2023-04-06T12:22:54.050Z,14.45
2023-04-06T12:25:20.900Z,13.38
2023-04-06T12:27:48.083Z,15.57
2023-04-06T12:30:15.244Z,14.38
2023-04-06T12:32:42.388Z,16.27
2023-04-06T12:35:10.440Z,17.00
2023-04-06T12:37:37.784Z,14.13
2023-04-06T12:40:05.129Z,15.15
2023-04-06T12:42:32.237Z,14.52
2023-04-06T12:44:59.332Z,15.13
2023-04-06T12:47:27.509Z,15.45
2023-04-06T12:49:55.771Z,15.70
2023-04-06T12:52:22.843Z,14.63
2023-04-06T12:54:51.292Z,14.00
2023-04-06T12:57:18.565Z,14.80
2023-04-06T12:59:46.123Z,17.30
2023-04-06T13:02:13.338Z,16.27
2023-04-06T13:04:40.442Z,16.23
2023-04-06T13:07:07.609Z,15.95
2023-04-06T13:09:34.297Z,14.65
2023-04-06T13:12:01.893Z,15.02
2023-04-06T13:14:28.497Z,18.10
2023-04-06T13:16:55.825Z,14.73
2023-04-06T13:19:22.617Z,15.13
2023-04-06T13:21:49.453Z,15.98
2023-04-06T13:24:17.227Z,17.70
2023-04-06T13:26:44.518Z,13.63
2023-04-06T13:29:11.342Z,14.55
2023-04-06T13:31:38.929Z,12.68
2023-04-06T13:34:06.202Z,13.73
2023-04-06T13:36:33.321Z,15.48
2023-04-06T13:39:00.244Z,17.48
2023-04-06T13:41:27.506Z,11.57
2023-04-06T13:43:54.655Z,12.50
2023-04-06T13:46:21.585Z,13.25
2023-04-06T13:48:48.934Z,16.85
2023-04-06T13:51:16.278Z,13.57
2023-04-06T13:53:43.039Z,13.32
2023-04-06T13:56:09.704Z,16.50
2023-04-06T13:58:37.229Z,12.48
2023-04-06T14:01:10.503Z,13.20
2023-04-06T14:03:38.158Z,12.27
2023-04-06T14:06:29.619Z,15.23
2023-04-06T14:08:57.987Z,15.27
2023-04-06T14:11:25.198Z,13.75
2023-04-06T14:13:52.039Z,12.90
2023-04-06T14:16:20.626Z,13.75
2023-04-06T14:18:47.514Z,14.20
2023-04-06T14:21:14.306Z,15.13
2023-04-06T14:23:41.319Z,12.40
2023-04-06T14:26:09.532Z,13.32
2023-04-06T14:28:37.345Z,13.85
2023-04-06T14:31:16.128Z,14.68
2023-04-06T14:33:43.617Z,12.20
2023-04-06T14:36:10.675Z,12.98
2023-04-06T14:38:37.458Z,10.88
2023-04-06T14:41:04.130Z,15.50
2023-04-06T14:43:31.497Z,12.30
2023-04-06T14:46:02.467Z,11.35
2023-04-06T14:48:29.594Z,13.35
2023-04-06T14:50:57.441Z,11.50
2023-04-06T14:53:25.353Z,12.13
2023-04-06T14:55:52.530Z,10.30
2023-04-06T14:58:20.420Z,10.73
2023-04-06T15:00:47.527Z,11.13
2023-04-06T15:03:14.706Z,9.50
2023-04-06T15:05:42.064Z,9.73
2023-04-06T15:08:13.187Z,9.40
2023-04-06T15:10:40.491Z,12.07
2023-04-06T15:13:07.584Z,9.95
2023-04-06T15:15:34.686Z,7.80
2023-04-06T15:18:03.473Z,9.02
2023-04-06T15:20:31.405Z,11.30
2023-04-06T15:22:58.472Z,11.18
2023-04-06T15:25:25.699Z,10.10
2023-04-06T15:27:52.828Z,10.13
2023-04-06T15:30:19.867Z,6.88
2023-04-06T15:32:54.816Z,8.30
2023-04-06T15:35:22.257Z,9.63
2023-04-06T15:37:50.072Z,9.88
2023-04-06T15:40:17.127Z,11.68
2023-04-06T15:42:44.299Z,8.57
2023-04-06T15:45:12.141Z,10.25
2023-04-06T15:47:39.623Z,8.85
2023-04-06T15:50:07.293Z,9.90
2023-04-06T15:52:34.417Z,9.65
2023-04-06T15:55:02.025Z,11.07
2023-04-06T15:57:29.163Z,10.63
2023-04-06T15:59:56.279Z,9.13
2023-04-06T16:02:23.816Z,10.70
2023-04-06T16:04:54.987Z,11.00
2023-04-06T16:07:22.095Z,10.98
2023-04-06T16:09:49.105Z,12.90
2023-04-06T16:12:16.351Z,9.35
2023-04-06T16:14:43.358Z,12.25
2023-04-06T16:17:10.582Z,12.00
2023-04-06T16:19:37.624Z,8.38
2023-04-06T16:22:04.793Z,12.00
2023-04-06T16:24:34.106Z,10.52
2023-04-06T16:27:01.158Z,12.70
2023-04-06T16:29:28.591Z,10.32
2023-04-06T16:31:55.824Z,12.23
2023-04-06T16:34:22.987Z,12.52
2023-04-06T16:36:50.420Z,11.25
2023-04-06T16:39:17.557Z,11.25
2023-04-06T16:41:44.563Z,10.90
2023-04-06T16:44:13.009Z,10.68
2023-04-06T16:46:40.148Z,12.77
2023-04-06T16:49:07.283Z,11.05
2023-04-06T16:51:34.500Z,15.40
2023-04-06T16:54:02.647Z,11.48
2023-04-06T16:56:29.798Z,12.45
2023-04-06T16:58:56.808Z,11.90
2023-04-06T17:01:27.737Z,11.38
2023-04-06T17:03:55.461Z,13.35
2023-04-06T17:06:23.211Z,11.05
2023-04-06T17:08:51.153Z,11.85
2023-04-06T17:11:21.920Z,13.35
2023-04-06T17:13:52.727Z,13.15
2023-04-06T17:16:20.839Z,11.20
2023-04-06T17:18:47.564Z,12.50
2023-04-06T17:21:14.489Z,12.45
2023-04-06T17:23:41.482Z,12.80
2023-04-06T17:26:08.471Z,16.23
2023-04-06T17:28:35.590Z,15.02
2023-04-06T17:31:02.649Z,11.77
2023-04-06T17:33:32.393Z,20.13
2023-04-06T17:35:59.545Z,18.70
2023-04-06T17:38:26.388Z,21.98
2023-04-06T17:40:53.016Z,20.08
2023-04-06T17:43:19.741Z,28.65
2023-04-06T17:45:50.892Z,24.55
2023-04-06T17:48:17.944Z,14.23
2023-04-06T17:50:45.357Z,19.90
2023-04-06T17:53:12.228Z,18.65
2023-04-06T17:55:38.971Z,19.67
2023-04-06T17:58:05.945Z,13.00
2023-04-06T18:00:32.664Z,12.27
2023-04-06T18:02:59.384Z,17.33
2023-04-06T18:05:28.994Z,15.82
2023-04-06T18:07:55.823Z,15.95
2023-04-06T18:10:23.106Z,14.07
2023-04-06T18:12:49.938Z,14.90
2023-04-06T18:15:17.047Z,16.70
2023-04-06T18:17:45.460Z,15.55
2023-04-06T18:20:14.173Z,15.05
2023-04-06T18:22:44.723Z,12.50
2023-04-06T18:25:12.801Z,16.08
2023-04-06T18:27:39.621Z,15.77
2023-04-06T18:30:06.810Z,15.38
2023-04-06T18:32:33.569Z,35.75
2023-04-06T18:35:00.467Z,18.10
2023-04-06T18:37:27.131Z,16.80
2023-04-06T18:39:54.558Z,16.13
2023-04-06T18:42:21.334Z,14.45
2023-04-06T18:44:48.682Z,14.15
2023-04-06T18:47:15.669Z,16.05
2023-04-06T18:49:42.912Z,13.68
2023-04-06T18:52:10.081Z,13.25
2023-04-06T18:54:37.032Z,13.18
2023-04-06T18:57:04.744Z,16.02
2023-04-06T18:59:31.660Z,18.63
2023-04-06T19:01:59.278Z,13.90
2023-04-06T19:04:26.994Z,13.95
2023-04-06T19:06:55.272Z,15.60
2023-04-06T19:09:21.895Z,16.05
2023-04-06T19:11:48.978Z,15.30
2023-04-06T19:14:16.005Z,18.92
2023-04-06T19:16:51.725Z,16.75
2023-04-06T19:19:19.354Z,22.50
2023-04-06T19:21:46.609Z,18.65
2023-04-06T19:24:13.676Z,21.45
2023-04-06T19:26:42.386Z,20.75
2023-04-06T19:29:10.057Z,17.27
2023-04-06T19:31:37.381Z,18.30
2023-04-06T19:34:04.810Z,18.17
2023-04-06T19:36:32.465Z,21.08
2023-04-06T19:38:59.868Z,18.25
2023-04-06T19:41:27.387Z,18.63
2023-04-06T19:43:54.247Z,20.10
2023-04-06T19:46:21.629Z,18.42
2023-04-06T19:48:48.386Z,20.85
2023-04-06T19:51:15.046Z,20.73
2023-04-06T19:53:41.742Z,20.00
2023-04-06T19:56:10.053Z,21.15
2023-04-06T19:58:38.045Z,19.05
2023-04-06T20:01:05.057Z,20.20
2023-04-06T20:03:32.370Z,22.10
2023-04-06T20:05:59.421Z,24.73
2023-04-06T20:08:26.093Z,26.48
2023-04-06T20:10:52.750Z,22.80
2023-04-06T20:13:20.834Z,25.73
2023-04-06T20:15:47.604Z,20.17
2023-04-06T20:18:14.216Z,24.27
2023-04-06T20:20:40.983Z,26.73
2023-04-06T20:23:07.678Z,24.55
2023-04-06T20:25:34.346Z,21.67
2023-04-06T20:28:01.059Z,24.48
2023-04-06T20:30:27.788Z,27.83
2023-04-06T20:32:54.649Z,19.95
2023-04-06T20:35:21.435Z,20.60
2023-04-06T20:37:48.259Z,23.65
2023-04-06T20:40:14.956Z,23.70
2023-04-06T20:42:41.827Z,26.52
2023-04-06T20:45:09.286Z,21.50
2023-04-06T20:47:35.894Z,24.50
2023-04-06T20:50:02.708Z,23.58
2023-04-06T20:52:29.321Z,22.98
2023-04-06T20:54:56.354Z,23.45
2023-04-06T20:57:24.215Z,20.88
2023-04-06T20:59:50.944Z,23.50
2023-04-06T21:02:17.977Z,25.75
2023-04-06T21:04:45.250Z,21.33
2023-04-06T21:07:12.130Z,21.85
2023-04-06T21:09:40.392Z,21.25
2023-04-06T21:12:07.904Z,21.38
2023-04-06T21:14:34.901Z,20.48
2023-04-06T21:17:01.674Z,20.25
2023-04-06T21:19:28.308Z,19.05
2023-04-06T21:21:54.993Z,23.85
2023-04-06T21:24:21.658Z,20.35
2023-04-06T21:26:48.297Z,22.00
2023-04-06T21:29:14.890Z,20.15
2023-04-06T21:31:42.370Z,19.05
2023-04-06T21:34:10.859Z,19.95
2023-04-06T21:36:38.261Z,21.50
2023-04-06T21:39:06.092Z,20.35
2023-04-06T21:41:33.724Z,20.88
2023-04-06T21:44:00.604Z,19.77
2023-04-06T21:46:27.288Z,18.80
2023-04-06T21:48:53.932Z,21.05
2023-04-06T21:51:22.186Z,20.10
2023-04-06T21:53:49.361Z,20.75
2023-04-06T21:56:22.938Z,23.25
2023-04-06T21:58:50.512Z,19.67
2023-04-06T22:01:17.536Z,19.85
2023-04-06T22:03:46.110Z,22.42
2023-04-06T22:06:13.137Z,18.02
2023-04-06T22:08:39.822Z,22.65
2023-04-06T22:11:11.642Z,21.60
2023-04-06T22:13:38.946Z,21.27
2023-04-06T22:16:06.360Z,21.80
2023-04-06T22:18:33.513Z,23.50
2023-04-06T22:21:00.989Z,21.05
2023-04-06T22:23:27.683Z,21.45
2023-04-06T22:25:54.345Z,19.75
2023-04-06T22:28:20.990Z,19.90
2023-04-06T22:30:48.124Z,19.73
2023-04-06T22:33:15.065Z,22.13
2023-04-06T22:35:41.861Z,22.38
2023-04-06T22:38:08.598Z,17.40
2023-04-06T22:40:35.509Z,18.55
2023-04-06T22:43:02.213Z,17.40
2023-04-06T22:45:28.918Z,18.83
2023-04-06T22:47:55.681Z,22.35
2023-04-06T22:50:22.478Z,23.00
2023-04-06T22:52:49.249Z,17.75
2023-04-06T22:55:16.217Z,17.70
2023-04-06T22:57:42.817Z,20.65
2023-04-06T23:00:09.980Z,18.98
2023-04-06T23:02:37.062Z,16.75
2023-04-06T23:05:03.812Z,17.50
2023-04-06T23:07:32.481Z,19.55
2023-04-06T23:09:59.389Z,23.08
2023-04-06T23:12:26.288Z,18.40
2023-04-06T23:14:53.084Z,15.38
2023-04-06T23:17:19.726Z,15.23
2023-04-06T23:19:46.332Z,15.93
2023-04-06T23:22:13.156Z,16.13
2023-04-06T23:24:39.761Z,19.17
2023-04-06T23:27:06.479Z,15.93
2023-04-06T23:29:33.545Z,17.00
2023-04-06T23:32:01.090Z,16.77
2023-04-06T23:34:28.113Z,13.85
2023-04-06T23:36:55.350Z,16.50
2023-04-06T23:39:22.417Z,17.10
2023-04-06T23:41:49.457Z,14.60
2023-04-06T23:44:16.538Z,15.85
2023-04-06T23:46:43.601Z,16.65
2023-04-06T23:49:10.714Z,14.82
2023-04-06T23:51:37.719Z,14.82
2023-04-06T23:54:04.959Z,13.32
2023-04-06T23:56:31.654Z,16.27
2023-04-06T23:58:58.426Z,15.77
